Nearby METAR Reports

 

KSJC - San Jose, California, USA
Distance from station: NE 14km
Updated: 25/06/2019 15:53
Mostly cloudy
Mostly cloudy
 Wind from NNW
Wind: NNW 28 km/h
Temperature: 26°C
Dew Point: 13°C
Humidity: 45%
Barometer: 1010.5 hPa
Clouds: Mostly cloudy
Visibility: 16 km
Cloud details: Few Clouds 2134 m
Partly cloudy 4267 m
Mostly cloudy 5486 m
2019/06/25 22:53 KSJC 252253Z 33015KT 10SM FEW070 SCT140 BKN180 26/13 A2984 RMK AO2 SLP104 T02610128
KNUQ - Moffett Nas/Mtn, California, USA
Distance from station: N 14km
Updated: 25/06/2019 15:56
Clear
Clear
 Wind from N
Wind: N 30 km/h
Barometer: 1010.8 hPa
Clouds: Clear
Visibility: 16 km
2019/06/25 22:56 KNUQ 252256Z 35016KT 10SM CLR A2985 RMK AO2 SLP112
 
KPAO - Palo Alto, California, USA
Distance from station: NNW 23km
Updated: 25/06/2019 15:47
Partly cloudy
Partly cloudy
 Wind from NNW
Wind: NNW 26 km/h
Temperature: 26°C
Dew Point: 10°C
Humidity: 37%
Barometer: 1010.8 hPa
Clouds: Partly cloudy
Visibility: 16 km
Cloud details: Partly cloudy 6096 m
2019/06/25 22:47 KPAO 252247Z 33014KT 10SM SCT200 26/10 A2985
KRHV - San Jose/Reid, California, USA
Distance from station: ENE 19km
Updated: 25/06/2019 15:50
Partly cloudy
Partly cloudy
 Wind from NNW
Wind: NNW 20 km/h
Temperature: 29°C
Dew Point: 10°C
Humidity: 31%
Barometer: 1010.5 hPa
Clouds: Partly cloudy
Visibility: 16 km
Cloud details: Partly cloudy 3353 m
2019/06/25 22:50 KRHV 252250Z 33011KT 10SM SCT110 29/10 A2984
 
KOAK - Oakland, California, USA
Distance from station: NNW 50km
Updated: 25/06/2019 15:53
Few Clouds
Few Clouds
 Wind from W
Wind: W 24 km/h
Temperature: 22°C
Dew Point: 12°C
Humidity: 53%
Barometer: 1011.2 hPa
Clouds: Few Clouds
Visibility: 16 km
Cloud details: Few Clouds 305 m
Few Clouds 6096 m
2019/06/25 22:53 KOAK 252253Z 27013KT 10SM FEW010 FEW200 22/12 A2986 RMK AO2 SLP111 T02170117
KSQL - San Carlos Airpo, California, USA
Distance from station: NW 34km
Updated: 25/06/2019 15:47
Partly cloudy
Partly cloudy
 Wind from SW
Wind: SW 22 km/h
Temperature: 23°C
Dew Point: 11°C
Humidity: 47%
Barometer: 1011.5 hPa
Clouds: Partly cloudy
Visibility: 16 km
Cloud details: Partly cloudy 6096 m
2019/06/25 22:47 KSQL 252247Z 23012KT 10SM SCT200 23/11 A2987
 
KSFO - San Francisco, California, USA
Distance from station: NW 49km
Updated: 25/06/2019 15:56
Partly cloudy
Partly cloudy
 Wind from WNW
Wind: WNW 31 km/h, Gust: 46 km/h
Temperature: 22°C
Dew Point: 11°C
Humidity: 50%
Barometer: 1010.8 hPa
Clouds: Partly cloudy
Visibility: 16 km
Cloud details: Few Clouds 5486 m
Partly cloudy 6096 m
2019/06/25 22:56 KSFO 252256Z 29017G25KT 10SM FEW180 SCT200 22/11 A2985 RMK AO2 PK WND 27027/2233 SLP108 T02170106
KE16 - San Martin, California, USA
Distance from station: ESE 43km
Updated: 25/06/2019 16:35
Clear
Clear
 Wind from WNW
Wind: WNW 20 km/h, Gust: 31 km/h
Temperature: 29°C
Dew Point: 9°C
Humidity: 29%
Barometer: 1010.2 hPa
Clouds: Clear
Visibility: 16 km
2019/06/25 23:35 KE16 252335Z AUTO 30011G17KT 10SM CLR 29/09 A2983 RMK AO2
 
KWVI - Watsonville, California, USA
Distance from station: SSE 44km
Updated: 25/06/2019 15:53
Clear
Clear
 Wind from SW
Wind: SW 15 km/h
Temperature: 20°C
Dew Point: 13°C
Humidity: 64%
Barometer: 1012.2 hPa
Clouds: Clear
Visibility: 16 km
2019/06/25 22:53 KWVI 252253Z AUTO 22008KT 10SM CLR 20/13 A2989 RMK AO2 SLP122 T02000128
KHAF - Half Moon Bay, California, USA
Distance from station: WNW 50km
Updated: 25/06/2019 16:40
Few Clouds
Few Clouds
 Wind from WNW
Wind: WNW 13 km/h
Temperature: 16°C
Dew Point: 13°C
Humidity: 83%
Barometer: 1012.9 hPa
Clouds: Few Clouds
Visibility: 13 km
Cloud details: Few Clouds 427 m
2019/06/25 23:40 KHAF 252340Z AUTO 30007KT 8SM FEW014 16/13 A2991 RMK AO2
 
KHWD - Hayward, California, USA
Distance from station: N 44km
Updated: 25/06/2019 15:54
Clear
Clear
 Wind from W
Wind: W 19 km/h
Temperature: 21°C
Dew Point: 12°C
Humidity: 57%
Barometer: 1011.2 hPa
Clouds: Clear
Visibility: 16 km
2019/06/25 22:54 KHWD 252254Z 28010KT 10SM CLR 21/12 A2986 RMK AO2 SLP120 T02110122
KLVK - Livermore, California, USA
Distance from station: NNE 51km
Updated: 25/06/2019 15:53
Clear
Clear
 Wind from WNW
Wind: WNW 26 km/h, Gust: 39 km/h
Temperature: 29°C
Dew Point: 8°C
Humidity: 27%
Barometer: 1009.5 hPa
Clouds: Clear
Visibility: 16 km
2019/06/25 22:53 KLVK 252253Z 29014G21KT 10SM CLR 29/08 A2981 RMK AO2 SLP093 T02890078